1949 Tropical Low NOT_NAMED (1949038S13155)


IBTrACS version v04r00. Visit IBTrACS website for data access.
Please direct all questions to the IBTrACS Q and A forum

Storm track - Intensity - Wind Radii - Intensity Data - Source Data - All data

Summary Information

Storm ID 1949038S13155
Start Feb 6 23Z
Landfall Feb 11 09Z, Feb 13 18Z
Max Intensity 994 mb (Feb 9 23Z)
End Feb 16 23Z
ATCF IDs ,SH121949
Track status Best track data.

Storm track plot

Map of storm track

Intensity plots

Map of storm track

Radial wind information

No radial wind information for this storm


Position and Intensity Table

BASIN ISO_TIME_________ NATURE LAT LON WMO PRES BOM PRES
degrees north degrees east mb mb
SP 1949-02-06 23:00:00 NR -13.10 155.00
SP 1949-02-07 00:00:00 TS -13.11 154.88
SP 03:00:00 TS -13.16 154.44
SP 06:00:00 TS -13.22 154.02
SP 09:00:00 TS -13.30 153.64
SP 11:00:00 TS -13.37 153.41
SP 12:00:00 TS -13.41 153.29
SP 15:00:00 TS -13.55 152.94
SP 18:00:00 TS -13.71 152.58
SP 21:00:00 TS -13.90 152.23
SP 23:00:00 TS -14.02 152.01 1000 1000
SP 1949-02-08 00:00:00 TS -14.08 151.90
SP 03:00:00 TS -14.25 151.60
SP 06:00:00 TS -14.43 151.32
SP 09:00:00 TS -14.62 151.02
SP 11:00:00 TS -14.75 150.81
SP 12:00:00 TS -14.81 150.70
SP 15:00:00 TS -14.97 150.34
SP 18:00:00 TS -15.11 149.96
SP 21:00:00 TS -15.22 149.59
SP 23:00:00 TS -15.28 149.34 1000 1000
SP 1949-02-09 00:00:00 TS -15.31 149.20
SP 03:00:00 TS -15.39 148.79
SP 06:00:00 TS -15.43 148.36
SP 08:00:00 TS -15.43 148.08
SP 09:00:00 TS -15.42 147.94
SP 11:00:00 TS -15.38 147.66
SP 12:00:00 TS -15.35 147.51
SP 15:00:00 TS -15.27 147.03
SP 18:00:00 TS -15.17 146.58
SP 21:00:00 TS -15.06 146.18
SP 23:00:00 TS -14.98 145.96 994 994
SP 1949-02-10 00:00:00 TS -14.94 145.86
SP 03:00:00 TS -14.77 145.66
SP 06:00:00 TS -14.58 145.50
SP 09:00:00 TS -14.44 145.34
SP 11:00:00 TS -14.36 145.23
SP 12:00:00 TS -14.32 145.17
SP 15:00:00 TS -14.18 145.03
SP 18:00:00 TS -14.08 144.88
SP 21:00:00 TS -14.05 144.69
SP 23:00:00 TS -14.07 144.55 995 995
SP 1949-02-11 00:00:00 TS -14.09 144.46 995
SP 03:00:00 TS -14.19 144.20 995
SP 05:00:00 TS -14.28 144.01 995 995
SP 06:00:00 TS -14.34 143.92
SP 09:00:00 TS -14.54 143.63
SP 11:00:00 TS -14.69 143.44
SP 12:00:00 TS -14.76 143.35
SP 15:00:00 TS -14.98 143.09
SP 18:00:00 TS -15.19 142.85
SP 21:00:00 TS -15.40 142.60
SP 23:00:00 TS -15.53 142.43 995 995
SP 1949-02-12 00:00:00 TS -15.58 142.34
SP 03:00:00 TS -15.71 142.09
SP 06:00:00 TS -15.81 141.83
SP 09:00:00 TS -15.90 141.55
SP 11:00:00 TS -15.95 141.36
SP 12:00:00 TS -15.98 141.26
SP 13:00:00 TS -16.00 141.16 994 994
SP 15:00:00 TS -16.03 140.96 994
SP 18:00:00 TS -16.09 140.67 994
SP 21:00:00 TS -16.18 140.36 994
SP 23:00:00 TS -16.27 140.19 994 994
SP 1949-02-13 00:00:00 TS -16.33 140.11
SP 03:00:00 TS -16.56 139.96
SP 06:00:00 TS -16.83 139.89
SP 07:00:00 TS -16.92 139.88
SP 09:00:00 TS -17.11 139.89
SP 11:00:00 TS -17.30 139.93
SP 12:00:00 TS -17.39 139.96
SP 15:00:00 TS -17.65 140.05
SP 18:00:00 TS -17.87 140.21
SP 21:00:00 TS -18.04 140.46
SP 23:00:00 TS -18.12 140.67 994 994
SP 1949-02-14 00:00:00 TS -18.15 140.78
SP 03:00:00 TS -18.17 141.12
SP 06:00:00 TS -18.15 141.51
SP 09:00:00 TS -18.11 141.91
SP 11:00:00 TS -18.08 142.18
SP 12:00:00 TS -18.04 142.31
SP 15:00:00 TS -17.87 142.72
SP 18:00:00 TS -17.77 143.17
SP 21:00:00 TS -17.86 143.66
SP 23:00:00 TS -18.04 144.06 994 994
SP 1949-02-15 00:00:00 TS -18.17 144.31
SP 03:00:00 TS -18.68 145.23
SP 06:00:00 TS -19.30 146.29
SP 09:00:00 TS -19.93 147.37
SP 11:00:00 TS -20.36 148.09
SP 12:00:00 TS -20.57 148.43
SP 14:00:00 TS -21.01 149.10
SP 15:00:00 TS -21.23 149.43
SP 18:00:00 TS -21.89 150.39
SP 21:00:00 TS -22.55 151.35
SP 23:00:00 TS -23.00 152.00 994 994
SP 1949-02-16 00:00:00 TS -23.22 152.33
SP 03:00:00 TS -23.95 153.39
SP 06:00:00 TS -24.75 154.57
SP 09:00:00 TS -25.59 155.83
SP 11:00:00 TS -26.18 156.76
SP 12:00:00 TS -26.50 157.27
SP 15:00:00 TS -27.44 158.90
SP 18:00:00 TS -28.40 160.64
SP 21:00:00 NR -29.42 162.52
SP 23:00:00 NR -30.05 163.75 1000 1000

Source Information

Agency Information
USA bsh121949.txt
TOKYO
CMA
HKO
NEWDELHI
REUNION
BOM IDCKMSTM0S.csv:Line=1510:unnamed
NADI
WELLINGTON
DS824 s_hem.dat:508:12P
TD9636 cons_worldwide_trop_cyclone_18710101-19891231-006:Line=3405
TD9635
NEUMANN
MLC

All available IBTrACS Data

SEASON BASIN SUBBASIN ISO_TIME_________ NATURE LAT LON WMO PRES WMO AGENCY DIST2LAND LANDFALL IFLAG USA AGENCY USA ATCF_ID USA LAT USA LON USA SSHS BOM LAT BOM LON BOM PRES BOM PRES_METHOD DS824 LAT DS824 LON DS824 STAGE TD9636 LAT TD9636 LON TD9636 STAGE STORM SPEED STORM DIR
Year degrees north degrees east mb km km degrees north degrees east 1 degrees north degrees east mb degrees north degrees east degrees north degrees east kts degrees
1949 SP EA 1949-02-06 23:00:00 NR -13.10 155.00 545 536 __________O___ -1 -13.10 155.00 2 7 265
1949 SP EA 1949-02-07 00:00:00 TS -13.11 154.88 536 499 O________OP___ jtwc_sh SH121949 -13.10 154.90 -1 -13.10 154.90 TC -13.12 154.86 2 8 264
1949 SP EA 03:00:00 TS -13.16 154.44 497 462 P________PP___ SH121949 -13.14 154.43 -1 -13.14 154.43 TC -13.18 154.45 2 8 263
1949 SP EA 06:00:00 TS -13.22 154.02 462 445 O________OP___ jtwc_sh SH121949 -13.20 154.00 -1 -13.20 154.00 TC -13.25 154.05 2 8 260
1949 SP EA 09:00:00 TS -13.30 153.64 437 429 P________PP___ SH121949 -13.28 153.63 -1 -13.28 153.63 TC -13.33 153.66 2 7 256
1949 SP EA 11:00:00 TS -13.37 153.41 429 422 P________PO___ SH121949 -13.36 153.41 -1 -13.36 153.41 TC -13.40 153.40 2 7 252
1949 SP EA 12:00:00 TS -13.41 153.29 422 409 O________OP___ jtwc_sh SH121949 -13.40 153.30 -1 -13.40 153.30 TC -13.44 153.27 2 7 249
1949 SP EA 15:00:00 TS -13.55 152.94 403 400 P________PP___ SH121949 -13.53 152.95 -1 -13.53 152.95 TC -13.57 152.91 2 7 247
1949 SP EA 18:00:00 TS -13.71 152.58 404 398 O________OP___ jtwc_sh SH121949 -13.70 152.60 -1 -13.70 152.60 TC -13.72 152.55 2 8 243
1949 SP EA 21:00:00 TS -13.90 152.23 403 399 P________PP___ SH121949 -13.90 152.24 -1 -13.90 152.24 TC -13.89 152.22 2 8 241
1949 SP EA 23:00:00 TS -14.02 152.01 1000 bom 406 406 P_____O__PO___ SH121949 -14.04 152.01 -1 -14.00 152.00 1000 -14.04 152.01 TC -14.00 152.00 2 8 240
1949 SP EA 1949-02-08 00:00:00 TS -14.08 151.90 413 409 O_____P__OP___ jtwc_sh SH121949 -14.10 151.90 -1 -14.07 151.91 -14.10 151.90 TC -14.06 151.90 2 7 239
1949 SP EA 03:00:00 TS -14.25 151.60 423 420 P_____P__PP___ SH121949 -14.25 151.59 -1 -14.27 151.64 -14.25 151.59 TC -14.23 151.60 2 7 239
1949 SP EA 06:00:00 TS -14.43 151.32 425 425 O_____P__OP___ jtwc_sh SH121949 -14.40 151.30 -1 -14.46 151.36 -14.40 151.30 TC -14.41 151.31 2 7 237
1949 SP EA 09:00:00 TS -14.62 151.02 441 441 P_____P__PP___ SH121949 -14.60 151.01 -1 -14.65 151.07 -14.60 151.01 TC -14.59 151.01 2 7 237
1949 SP EA 11:00:00 TS -14.75 150.81 450 450 P_____P__PO___ SH121949 -14.74 150.81 -1 -14.77 150.87 -14.74 150.81 TC -14.70 150.80 2 7 239
1949 SP EA 12:00:00 TS -14.81 150.70 460 459 O_____P__OP___ jtwc_sh SH121949 -14.80 150.70 -1 -14.82 150.76 -14.80 150.70 TC -14.76 150.69 2 8 244
1949 SP EA 15:00:00 TS -14.97 150.34 481 481 P_____P__PP___ SH121949 -14.97 150.31 -1 -14.98 150.43 -14.97 150.31 TC -14.93 150.33 2 8 247
1949 SP EA 18:00:00 TS -15.11 149.96 487 443 O_____P__OP___ jtwc_sh SH121949 -15.10 149.90 -1 -15.12 150.07 -15.10 149.90 TC -15.10 149.95 2 8 251
1949 SP EA 21:00:00 TS -15.22 149.59 443 419 P_____P__PP___ SH121949 -15.21 149.55 -1 -15.24 149.68 -15.21 149.55 TC -15.23 149.56 2 8 254
1949 SP EA 23:00:00 TS -15.28 149.34 1000 bom 410 400 P_____O__PO___ SH121949 -15.27 149.32 -1 -15.30 149.40 1000 -15.27 149.32 TC -15.30 149.30 2 8 257
1949 SP EA 1949-02-09 00:00:00 TS -15.31 149.20 400 357 O_____P__OP___ jtwc_sh SH121949 -15.30 149.20 -1 -15.33 149.25 -15.30 149.20 TC -15.33 149.17 2 8 258
1949 SP EA 03:00:00 TS -15.39 148.79 357 320 P_____P__PP___ SH121949 -15.42 148.81 -1 -15.39 148.79 -15.42 148.81 TC -15.40 148.78 2 8 261
1949 SP EA 06:00:00 TS -15.43 148.36 320 289 O_____P__OP___ jtwc_sh SH121949 -15.50 148.40 -1 -15.41 148.31 -15.50 148.40 TC -15.43 148.38 2 8 267
1949 SP EA 08:00:00 TS -15.43 148.08 bom 289 278 P_____O__PP___ SH121949 -15.50 148.14 -1 -15.40 148.00 -15.50 148.14 TC -15.43 148.11 2 8 273
1949 SP EA 09:00:00 TS -15.42 147.94 268 246 P_____P__PP___ SH121949 -15.48 148.01 -1 -15.39 147.84 -15.48 148.01 TC -15.42 147.98 2 8 277
1949 SP EA 11:00:00 TS -15.38 147.66 246 225 P_____P__PO___ SH121949 -15.43 147.74 -1 -15.36 147.53 -15.43 147.74 TC -15.40 147.70 2 8 278
1949 SP EA 12:00:00 TS -15.35 147.51 225 182 O_____P__OP___ jtwc_sh SH121949 -15.40 147.60 -1 -15.33 147.38 -15.40 147.60 TC -15.39 147.55 2 9 280
1949 SP EA 15:00:00 TS -15.27 147.03 171 129 P_____P__PP___ SH121949 -15.31 147.09 -1 -15.24 146.93 -15.31 147.09 TC -15.32 147.09 2 9 282
1949 SP EA 18:00:00 TS -15.17 146.58 129 88 O_____P__OP___ jtwc_sh SH121949 -15.20 146.60 -1 -15.12 146.51 -15.20 146.60 TC -15.22 146.63 2 9 284
1949 SP EA 21:00:00 TS -15.06 146.18 88 72 P_____P__PP___ SH121949 -15.11 146.20 -1 -14.99 146.13 -15.11 146.20 TC -15.09 146.23 2 8 287
1949 SP EA 23:00:00 TS -14.98 145.96 994 bom 72 63 P_____O__PO___ SH121949 -15.04 145.99 -1 -14.90 145.90 994 4 -15.04 145.99 TC -15.00 146.00 2 7 292
1949 SP EA 1949-02-10 00:00:00 TS -14.94 145.86 65 44 O_____P__OP___ jtwc_sh SH121949 -15.00 145.90 -1 -14.85 145.81 -15.00 145.90 TC -14.95 145.91 2 5 307
1949 SP EA 03:00:00 TS -14.77 145.66 48 39 P_____P__PP___ SH121949 -14.80 145.73 -1 -14.68 145.57 -14.80 145.73 TC -14.80 145.69 2 5 316
1949 SP EA 06:00:00 TS -14.58 145.50 46 46 O_____P__OP___ jtwc_sh SH121949 -14.60 145.60 -1 -14.49 145.39 -14.60 145.60 TC -14.64 145.53 2 5 316
1949 SP EA 09:00:00 TS -14.44 145.34 54 46 P_____P__PP___ SH121949 -14.49 145.40 -1 -14.32 145.25 -14.49 145.40 TC -14.49 145.39 2 4 310
1949 SP EA 11:00:00 TS -14.36 145.23 46 46 P_____P__PO___ SH121949 -14.43 145.26 -1 -14.21 145.16 -14.43 145.26 TC -14.40 145.30 2 4 308
1949 SP EA 12:00:00 TS -14.32 145.17 55 48 O_____P__OP___ jtwc_sh SH121949 -14.40 145.20 -1 -14.16 145.12 -14.40 145.20 TC -14.36 145.25 2 4 313
1949 SP EA 15:00:00 TS -14.18 145.03 48 46 P_____P__PP___ SH121949 -14.23 145.05 -1 -14.04 144.99 -14.23 145.05 TC -14.23 145.09 2 4 310
1949 SP EA 18:00:00 TS -14.08 144.88 46 39 O_____P__OP___ jtwc_sh SH121949 -14.10 144.90 -1 -13.97 144.84 -14.10 144.90 TC -14.14 144.92 2 4 292
1949 SP EA 21:00:00 TS -14.05 144.69 39 24 P_____P__PP___ SH121949 -14.06 144.71 -1 -13.96 144.66 -14.06 144.71 TC -14.10 144.74 2 4 271
1949 SP EA 23:00:00 TS -14.07 144.55 995 bom 22 22 P_____O__PO___ SH121949 -14.08 144.57 -1 -14.00 144.50 995 -14.08 144.57 TC -14.10 144.60 2 4 259
1949 SP EA 1949-02-11 00:00:00 TS -14.09 144.46 22 11 O_____P__OP___ jtwc_sh SH121949 -14.10 144.50 -1 -14.03 144.40 995 -14.10 144.50 TC -14.11 144.52 2 5 250
1949 SP EA 03:00:00 TS -14.19 144.20 15 11 P_____P__PP___ SH121949 -14.17 144.26 -1 -14.17 144.10 995 -14.17 144.26 TC -14.19 144.26 2 6 246
1949 SP EA 05:00:00 TS -14.28 144.01 995 bom 15 15 P_____O__PP___ SH121949 -14.25 144.09 -1 -14.30 143.90 995 -14.25 144.09 TC -14.28 144.07 2 6 241
1949 SP EA 06:00:00 TS -14.34 143.92 15 0 O_____P__OP___ jtwc_sh SH121949 -14.30 144.00 -1 -14.37 143.81 -14.30 144.00 TC -14.32 143.98 2 7 235
1949 SP EA 09:00:00 TS -14.54 143.63 0 0 P_____P__PP___ SH121949 -14.49 143.70 -1 -14.64 143.54 -14.49 143.70 TC -14.48 143.69 2 7 233
1949 SP EA 11:00:00 TS -14.69 143.44 0 0 P_____P__PO___ SH121949 -14.63 143.50 -1 -14.84 143.37 -14.63 143.50 TC -14.60 143.50 2 7 231
1949 SP EA 12:00:00 TS -14.76 143.35 0 0 O_____P__OP___ jtwc_sh SH121949 -14.70 143.40 -1 -14.95 143.29 -14.70 143.40 TC -14.66 143.41 2 7 229
1949 SP EA 15:00:00 TS -14.98 143.09 0 0 P_____P__PP___ SH121949 -14.86 143.14 -1 -15.29 143.05 -14.86 143.14 TC -14.84 143.16 2 6 229
1949 SP EA 18:00:00 TS -15.19 142.85 0 0 O_____P__OP___ jtwc_sh SH121949 -15.00 142.90 -1 -15.62 142.81 -15.00 142.90 TC -15.03 142.92 2 6 228
1949 SP EA 21:00:00 TS -15.40 142.60 0 0 P_____P__PP___ SH121949 -15.16 142.65 -1 -15.93 142.57 -15.16 142.65 TC -15.21 142.67 2 6 230
1949 SP EA 23:00:00 TS -15.53 142.43 995 bom 0 0 P_____O__PO___ SH121949 -15.26 142.48 -1 -16.10 142.40 995 -15.26 142.48 TC -15.30 142.50 2 6 234
1949 SP EA 1949-02-12 00:00:00 TS -15.58 142.34 0 0 O_____P__OP___ jtwc_sh SH121949 -15.30 142.40 -1 -16.17 142.31 -15.30 142.40 TC -15.33 142.41 2 6 241
1949 SP EA 03:00:00 TS -15.71 142.09 0 0 P_____P__PP___ SH121949 -15.36 142.16 -1 -16.35 142.05 -15.36 142.16 TC -15.40 142.14 2 5 246
1949 SP EA 06:00:00 TS -15.81 141.83 0 0 O_____P__OP___ jtwc_sh SH121949 -15.40 141.90 -1 -16.49 141.78 -15.40 141.90 TC -15.44 141.86 2 6 250
1949 SP EA 09:00:00 TS -15.90 141.55 0 0 P_____P__PP___ SH121949 -15.45 141.60 -1 -16.60 141.50 -15.45 141.60 TC -15.47 141.59 2 6 252
1949 SP EA 11:00:00 TS -15.95 141.36 0 0 P_____P__PO___ SH121949 -15.48 141.40 -1 -16.66 141.30 -15.48 141.40 TC -15.50 141.40 2 6 254
1949 SP EA 12:00:00 TS -15.98 141.26 10 10 O_____P__OP___ jtwc_sh SH121949 -15.50 141.30 -1 -16.68 141.20 -15.50 141.30 TC -15.51 141.30 2 6 257
1949 SP EA 13:00:00 TS -16.00 141.16 994 bom 21 21 P_____O__PP___ SH121949 -15.51 141.21 -1 -16.70 141.10 994 -15.51 141.21 TC -15.52 141.19 2 6 260
1949 SP EA 15:00:00 TS -16.03 140.96 42 42 P_____P__PP___ SH121949 -15.53 141.05 -1 -16.71 140.86 994 -15.53 141.05 TC -15.54 140.98 2 6 259
1949 SP EA 18:00:00 TS -16.09 140.67 72 72 O_____P__OP___ jtwc_sh SH121949 -15.60 140.80 -1 -16.71 140.50 994 -15.60 140.80 TC -15.59 140.69 2 6 256
1949 SP EA 21:00:00 TS -16.18 140.36 98 98 P_____P__PP___ SH121949 -15.71 140.48 -1 -16.74 140.17 994 -15.71 140.48 TC -15.69 140.43 2 6 249
1949 SP EA 23:00:00 TS -16.27 140.19 994 bom 115 115 P_____O__PO___ SH121949 -15.83 140.28 -1 -16.80 140.00 994 -15.83 140.28 TC -15.80 140.30 2 6 237
1949 SP EA 1949-02-13 00:00:00 TS -16.33 140.11 123 101 O_____P__OP___ jtwc_sh SH121949 -15.90 140.20 -1 -16.86 139.93 -15.90 140.20 TC -15.88 140.24 2 5 217
1949 SP EA 03:00:00 TS -16.56 139.96 96 77 P_____P__PP___ SH121949 -16.17 140.05 -1 -17.07 139.77 -16.17 140.05 TC -16.17 140.11 2 5 203
1949 SP EA 06:00:00 TS -16.83 139.89 77 70 O_____P__OP___ jtwc_sh SH121949 -16.50 140.00 -1 -17.32 139.70 -16.50 140.00 TC -16.52 140.05 2 6 191
1949 SP EA 07:00:00 TS -16.92 139.88 bom 70 54 P_____O__PP___ SH121949 -16.61 140.00 -1 -17.40 139.70 -16.61 140.00 TC -16.64 140.05 2 6 178
1949 SP EA 09:00:00 TS -17.11 139.89 54 35 P_____P__PP___ SH121949 -16.85 140.02 -1 -17.54 139.69 -16.85 140.02 TC -16.87 140.06 2 6 174
1949 SP EA 11:00:00 TS -17.30 139.93 35 24 P_____P__PO___ SH121949 -17.09 140.07 -1 -17.66 139.72 -17.09 140.07 TC -17.10 140.10 2 6 168
1949 SP EA 12:00:00 TS -17.39 139.96 30 11 O_____P__OP___ jtwc_sh SH121949 -17.20 140.10 -1 -17.73 139.74 -17.20 140.10 TC -17.20 140.12 2 6 162
1949 SP EA 15:00:00 TS -17.65 140.05 11 0 P_____P__PP___ SH121949 -17.53 140.16 -1 -17.89 139.87 -17.53 140.16 TC -17.51 140.21 2 5 153
1949 SP EA 18:00:00 TS -17.87 140.21 0 0 O_____P__OP___ jtwc_sh SH121949 -17.80 140.30 -1 -18.03 140.06 -17.80 140.30 TC -17.77 140.37 2 6 135
1949 SP EA 21:00:00 TS -18.04 140.46 0 0 P_____P__PP___ SH121949 -17.99 140.55 -1 -18.14 140.30 -17.99 140.55 TC -17.99 140.60 2 6 120
1949 SP EA 23:00:00 TS -18.12 140.67 994 bom 0 0 P_____O__PO___ SH121949 -18.07 140.77 -1 -18.20 140.50 994 -18.07 140.77 TC -18.10 140.80 2 6 110
1949 SP EA 1949-02-14 00:00:00 TS -18.15 140.78 0 0 O_____P__OP___ jtwc_sh SH121949 -18.10 140.90 -1 -18.19 140.57 -18.10 140.90 TC -18.14 140.91 2 7 97
1949 SP EA 03:00:00 TS -18.17 141.12 0 0 P_____P__PP___ SH121949 -18.17 141.34 -1 -18.11 140.80 -18.17 141.34 TC -18.22 141.29 2 7 90
1949 SP EA 06:00:00 TS -18.15 141.51 0 0 O_____P__OP___ jtwc_sh SH121949 -18.20 141.80 -1 -17.99 141.08 -18.20 141.80 TC -18.24 141.73 2 7 86
1949 SP EA 09:00:00 TS -18.11 141.91 0 0 P_____P__PP___ SH121949 -18.24 142.21 -1 -17.85 141.41 -18.24 142.21 TC -18.22 142.20 2 8 84
1949 SP EA 11:00:00 TS -18.08 142.18 0 0 P_____P__PO___ SH121949 -18.23 142.47 -1 -17.77 141.66 -18.23 142.47 TC -18.20 142.50 2 8 79
1949 SP EA 12:00:00 TS -18.04 142.31 0 0 O_____P__OP___ jtwc_sh SH121949 -18.20 142.60 -1 -17.73 141.80 -18.20 142.60 TC -18.16 142.61 2 8 69
1949 SP EA 15:00:00 TS -17.87 142.72 0 0 P_____P__PP___ SH121949 -17.91 142.99 -1 -17.66 142.27 -17.91 142.99 TC -18.01 142.91 2 9 72
1949 SP EA 18:00:00 TS -17.77 143.17 0 0 O_____P__OP___ jtwc_sh SH121949 -17.70 143.40 -1 -17.69 142.83 -17.70 143.40 TC -17.88 143.24 2 9 89
1949 SP EA 21:00:00 TS -17.86 143.66 0 0 P_____P__PP___ SH121949 -17.81 143.75 -1 -17.82 143.50 -17.81 143.75 TC -17.88 143.69 2 11 108
1949 SP EA 23:00:00 TS -18.04 144.06 994 bom 0 0 P_____O__PO___ SH121949 -18.04 144.08 -1 -18.00 144.00 994 -18.04 144.08 TC -18.00 144.10 2 14 116
1949 SP EA 1949-02-15 00:00:00 TS -18.17 144.31 0 0 O_____P__OP___ jtwc_sh SH121949 -18.20 144.30 -1 -18.13 144.28 -18.20 144.30 TC -18.12 144.37 2 19 120
1949 SP EA 03:00:00 TS -18.68 145.23 0 0 P_____P__PP___ SH121949 -18.80 145.25 -1 -18.62 145.22 -18.80 145.25 TC -18.62 145.32 2 22 121
1949 SP EA 06:00:00 TS -19.30 146.29 0 0 O_____P__OP___ jtwc_sh SH121949 -19.50 146.40 -1 -19.20 146.24 -19.50 146.40 TC -19.28 146.41 2 24 122
1949 SP EA 09:00:00 TS -19.93 147.37 0 0 P_____P__PP___ SH121949 -20.10 147.52 -1 -19.85 147.32 -20.10 147.52 TC -20.01 147.56 2 24 122
1949 SP EA 11:00:00 TS -20.36 148.09 0 0 P_____P__PO___ SH121949 -20.50 148.25 -1 -20.31 148.04 -20.50 148.25 TC -20.50 148.30 2 24 123
1949 SP EA 12:00:00 TS -20.57 148.43 0 0 O_____P__OP___ jtwc_sh SH121949 -20.70 148.60 -1 -20.54 148.40 -20.70 148.60 TC -20.70 148.62 2 23 124
1949 SP EA 14:00:00 TS -21.01 149.10 bom 10 0 P_____O__PP___ SH121949 -21.13 149.26 -1 -21.00 149.10 -21.13 149.26 TC -21.10 149.23 2 23 125
1949 SP EA 15:00:00 TS -21.23 149.43 20 20 P_____P__PP___ SH121949 -21.35 149.58 -1 -21.21 149.41 -21.35 149.58 TC -21.30 149.53 2 22 126
1949 SP EA 18:00:00 TS -21.89 150.39 53 23 O_____P__OP___ jtwc_sh SH121949 -22.00 150.50 -1 -21.84 150.35 -22.00 150.50 TC -21.91 150.43 2 22 126
1949 SP EA 21:00:00 TS -22.55 151.35 51 51 P_____P__PP___ SH121949 -22.58 151.38 -1 -22.52 151.31 -22.58 151.38 TC -22.55 151.35 2 22 127
1949 SP EA 23:00:00 TS -23.00 152.00 994 bom 123 112 P_____O__PO___ SH121949 -22.98 151.98 -1 -23.00 152.00 994 -22.98 151.98 TC -23.00 152.00 2 23 127
1949 SP EA 1949-02-16 00:00:00 TS -23.22 152.33 112 100 O_____P__OP___ jtwc_sh SH121949 -23.20 152.30 -1 -23.25 152.36 -23.20 152.30 TC -23.23 152.33 2 24 127
1949 SP EA 03:00:00 TS -23.95 153.39 89 75 P_____P__PP___ SH121949 -23.91 153.34 -1 -24.05 153.54 -23.91 153.34 TC -23.94 153.34 2 26 127
1949 SP EA 06:00:00 TS -24.75 154.57 122 122 O_____P__OP___ jtwc_sh SH121949 -24.70 154.50 -1 -24.91 154.83 -24.70 154.50 TC -24.70 154.44 2 28 126
1949 SP EA 09:00:00 TS -25.59 155.83 250 250 P_____P__PP___ SH121949 -25.53 155.72 -1 -25.80 156.22 -25.53 155.72 TC -25.52 155.68 2 29 126
1949 SP EA 11:00:00 TS -26.18 156.76 366 366 P_____P__PO___ SH121949 -26.10 156.62 -1 -26.42 157.21 -26.10 156.62 TC -26.10 156.60 2 32 125
1949 SP EA 12:00:00 TS -26.50 157.27 411 411 O_____P__OP___ jtwc_sh SH121949 -26.40 157.10 -1 -26.73 157.72 -26.40 157.10 TC -26.40 157.10 2 34 123
1949 SP EA 15:00:00 TS -27.44 158.90 528 528 P_____P__PP___ SH121949 -27.30 158.68 -1 -27.68 159.29 -27.30 158.68 TC -27.33 158.71 2 35 123
1949 SP MM 18:00:00 TS -28.40 160.64 683 683 O_____P__OP___ jtwc_sh SH121949 -28.20 160.40 -1 -28.63 160.94 -28.20 160.40 TC -28.29 160.49 2 38 122
1949 SP MM 21:00:00 NR -29.42 162.52 864 864 ______P___P___ SH121949 -1 -29.58 162.64 TC -29.26 162.39 2 38 121
1949 SP MM 23:00:00 NR -30.05 163.75 1000 bom 896 ______O___O___ SH121949 -1 -30.20 163.80 1000 TC -29.90 163.70 2 37 121